createdAt,value
2023-05-12T00:03:38.853Z,407.45
2023-05-12T00:08:46.042Z,408.04
2023-05-12T00:13:53.176Z,408.46
2023-05-12T00:19:00.356Z,408.55
2023-05-12T00:24:07.632Z,408.31
2023-05-12T00:29:14.803Z,408.20
2023-05-12T00:34:22.049Z,409.15
2023-05-12T00:39:29.309Z,408.96
2023-05-12T00:44:36.461Z,409.13
2023-05-12T00:49:43.654Z,408.68
2023-05-12T00:54:50.851Z,408.59
2023-05-12T00:59:58.026Z,408.70
2023-05-12T01:05:05.203Z,409.05
2023-05-12T01:10:12.440Z,408.74
2023-05-12T01:15:19.681Z,408.55
2023-05-12T01:20:26.930Z,408.51
2023-05-12T01:25:34.179Z,408.81
2023-05-12T01:30:41.335Z,409.13
2023-05-12T01:35:48.605Z,409.26
2023-05-12T01:40:55.791Z,409.23
2023-05-12T01:46:03.000Z,409.16
2023-05-12T01:51:10.127Z,409.19
2023-05-12T01:56:17.477Z,409.03
2023-05-12T02:01:24.830Z,408.96
2023-05-12T02:06:31.878Z,408.88
2023-05-12T02:11:39.150Z,408.69
2023-05-12T02:16:46.283Z,409.03
2023-05-12T02:21:54.351Z,408.99
2023-05-12T02:27:01.628Z,409.07
2023-05-12T02:32:08.980Z,409.69
2023-05-12T02:37:16.017Z,409.55
2023-05-12T02:42:23.428Z,409.66
2023-05-12T02:47:30.479Z,409.78
2023-05-12T02:52:37.679Z,410.06
2023-05-12T02:57:44.904Z,410.23
2023-05-12T03:02:52.589Z,410.26
2023-05-12T03:07:59.728Z,410.36
2023-05-12T03:13:07.309Z,410.02
2023-05-12T03:18:14.687Z,409.95
2023-05-12T03:23:21.896Z,410.04
2023-05-12T03:28:29.169Z,409.94
2023-05-12T03:33:36.400Z,409.95
2023-05-12T03:38:43.644Z,409.78
2023-05-12T03:43:51.039Z,410.28
2023-05-12T03:48:58.127Z,410.83
2023-05-12T03:54:05.351Z,411.21
2023-05-12T03:59:12.606Z,411.01
2023-05-12T04:04:19.895Z,411.04
2023-05-12T04:09:27.040Z,411.06
2023-05-12T04:14:42.393Z,411.26
2023-05-12T04:19:41.419Z,411.18
2023-05-12T04:24:48.603Z,410.88
2023-05-12T04:29:55.822Z,410.57
2023-05-12T04:35:03.001Z,410.07
2023-05-12T04:40:10.165Z,409.53
2023-05-12T04:45:17.410Z,409.62
2023-05-12T04:50:24.536Z,409.55
2023-05-12T04:55:31.951Z,409.59
2023-05-12T05:00:39.191Z,408.74
2023-05-12T05:05:46.380Z,408.82
2023-05-12T05:10:53.555Z,408.62
2023-05-12T05:16:01.959Z,408.72
2023-05-12T05:21:09.049Z,409.04
2023-05-12T05:26:16.217Z,408.69
2023-05-12T05:31:23.492Z,408.70
2023-05-12T05:36:31.702Z,408.50
2023-05-12T05:41:37.788Z,408.17
2023-05-12T05:46:45.015Z,408.01
2023-05-12T05:51:52.173Z,408.21
2023-05-12T05:56:59.451Z,407.39
2023-05-12T06:02:06.731Z,407.79
2023-05-12T06:07:13.828Z,407.22
2023-05-12T06:12:21.015Z,407.56
2023-05-12T06:17:28.737Z,407.69
2023-05-12T06:22:35.400Z,407.19
2023-05-12T06:27:42.563Z,407.02
2023-05-12T06:32:49.962Z,406.95
2023-05-12T06:37:57.150Z,406.76
2023-05-12T06:43:04.544Z,406.45
2023-05-12T06:48:11.777Z,406.97
2023-05-12T06:53:19.885Z,406.85
2023-05-12T06:58:27.124Z,407.38
2023-05-12T07:03:34.428Z,407.98
2023-05-12T07:08:41.544Z,408.00
2023-05-12T07:13:48.935Z,408.62
2023-05-12T07:18:56.247Z,407.77
2023-05-12T07:24:03.301Z,407.93
2023-05-12T07:29:12.770Z,408.72
2023-05-12T07:34:17.898Z,408.92
2023-05-12T07:39:25.117Z,409.23
2023-05-12T07:44:32.366Z,409.32
2023-05-12T07:49:39.641Z,409.30
2023-05-12T07:54:46.831Z,409.19
2023-05-12T07:59:53.966Z,409.70
2023-05-12T08:05:01.406Z,410.18
2023-05-12T08:10:08.385Z,409.96
2023-05-12T08:15:15.627Z,410.58
2023-05-12T08:20:23.193Z,410.03
2023-05-12T08:25:30.008Z,410.20
2023-05-12T08:30:37.225Z,409.41
2023-05-12T08:35:44.477Z,409.21
2023-05-12T08:40:51.563Z,409.12
2023-05-12T08:45:58.771Z,408.97
2023-05-12T08:51:06.318Z,408.83
2023-05-12T09:01:21.014Z,408.41
2023-05-12T09:06:28.404Z,408.76
2023-05-12T09:11:35.356Z,408.62
2023-05-12T09:16:42.794Z,409.26
2023-05-12T09:21:49.954Z,409.16
2023-05-12T09:26:57.123Z,409.15
2023-05-12T09:32:04.383Z,409.20
2023-05-12T09:37:13.235Z,409.16
2023-05-12T09:42:18.700Z,408.86
2023-05-12T09:47:25.926Z,409.49
2023-05-12T09:52:33.214Z,409.43
2023-05-12T09:57:40.237Z,409.79
2023-05-12T10:02:47.689Z,409.14
2023-05-12T10:07:59.223Z,409.98
2023-05-12T10:13:06.624Z,409.50
2023-05-12T10:18:14.959Z,409.64
2023-05-12T10:23:22.237Z,409.79
2023-05-12T10:28:29.267Z,410.06
2023-05-12T10:33:36.475Z,410.76
2023-05-12T10:38:43.698Z,410.44
2023-05-12T10:43:50.816Z,410.65
2023-05-12T10:48:58.033Z,410.83
2023-05-12T10:54:05.292Z,411.30
2023-05-12T10:59:12.871Z,411.76
2023-05-12T11:04:20.329Z,411.41
2023-05-12T11:09:27.336Z,411.23
2023-05-12T11:14:33.998Z,411.27
2023-05-12T11:19:41.231Z,410.85
2023-05-12T11:24:48.450Z,411.29
2023-05-12T11:29:55.627Z,411.88
2023-05-12T11:35:02.776Z,411.76
2023-05-12T11:40:10.065Z,411.52
2023-05-12T11:45:17.326Z,412.08
2023-05-12T11:50:24.480Z,411.76
2023-05-12T11:55:31.883Z,411.64
2023-05-12T12:00:39.014Z,411.64
2023-05-12T12:05:46.271Z,411.94
2023-05-12T12:10:53.556Z,411.70
2023-05-12T12:16:00.716Z,412.71
2023-05-12T12:21:07.867Z,412.28
2023-05-12T12:26:15.310Z,412.74
2023-05-12T12:31:22.348Z,412.61
2023-05-12T12:36:29.577Z,413.39
2023-05-12T12:41:36.959Z,413.87
2023-05-12T12:46:44.106Z,413.57
2023-05-12T12:51:51.361Z,414.35
2023-05-12T12:56:58.569Z,414.14
2023-05-12T13:02:05.817Z,414.42
2023-05-12T13:07:13.023Z,413.54
2023-05-12T13:12:20.273Z,413.34
2023-05-12T13:17:27.598Z,414.13
2023-05-12T13:22:34.698Z,413.78
2023-05-12T13:27:41.964Z,415.04
2023-05-12T13:32:49.181Z,415.30
2023-05-12T13:37:56.358Z,416.21
2023-05-12T13:43:03.658Z,416.70
2023-05-12T13:48:10.859Z,416.66
2023-05-12T13:53:17.996Z,416.66
2023-05-12T13:58:25.455Z,417.51
2023-05-12T14:03:32.477Z,418.03
2023-05-12T14:08:39.660Z,417.77
2023-05-12T14:13:46.950Z,417.78
2023-05-12T14:18:54.231Z,417.52
2023-05-12T14:24:01.317Z,417.54
2023-05-12T14:29:11.405Z,416.68
2023-05-12T14:34:18.550Z,416.87
2023-05-12T14:39:25.788Z,417.07
2023-05-12T14:44:33.016Z,417.59
2023-05-12T14:49:40.127Z,418.51
2023-05-12T14:54:47.326Z,418.38
2023-05-12T14:59:54.528Z,418.54
2023-05-12T15:05:01.781Z,418.20
2023-05-12T15:10:09.141Z,418.63
2023-05-12T15:15:16.510Z,418.08
2023-05-12T15:20:59.556Z,418.82
2023-05-12T15:28:11.155Z,418.71
2023-05-12T15:32:38.091Z,418.63
2023-05-12T15:38:47.996Z,418.75
2023-05-12T15:44:14.451Z,418.40
2023-05-12T15:49:57.062Z,418.13
2023-05-12T15:58:00.620Z,418.11
2023-05-12T16:04:27.036Z,417.81
2023-05-12T16:10:27.594Z,417.23
2023-05-12T16:15:52.099Z,416.96
2023-05-12T16:21:36.431Z,417.12
2023-05-12T16:26:53.810Z,417.08
2023-05-12T16:32:01.207Z,417.54
2023-05-12T16:37:08.826Z,417.90
2023-05-12T16:42:16.833Z,418.16
2023-05-12T16:47:28.167Z,417.54
2023-05-12T16:52:42.030Z,417.75
2023-05-12T16:59:01.240Z,417.43
2023-05-12T17:03:53.115Z,417.22
2023-05-12T17:09:00.620Z,416.84
2023-05-12T17:14:08.182Z,416.60
2023-05-12T17:19:16.137Z,416.40
2023-05-12T17:24:23.794Z,416.35
2023-05-12T17:29:31.455Z,416.28
2023-05-12T17:34:39.126Z,416.26
2023-05-12T17:39:46.808Z,415.79
2023-05-12T17:44:57.648Z,415.49
2023-05-12T17:50:08.809Z,415.29
2023-05-12T17:55:13.808Z,415.02
2023-05-12T18:00:21.807Z,414.41
2023-05-12T18:05:29.421Z,414.57
2023-05-12T18:10:37.255Z,413.91
2023-05-12T18:15:44.980Z,413.47
2023-05-12T18:20:53.268Z,413.83
2023-05-12T18:26:01.104Z,413.62
2023-05-12T18:31:16.001Z,413.41
2023-05-12T18:36:16.529Z,413.26
2023-05-12T18:41:24.146Z,413.45
2023-05-12T18:46:32.214Z,413.16
2023-05-12T18:51:40.107Z,412.58
2023-05-12T18:56:47.719Z,411.92
2023-05-12T19:01:55.585Z,411.51
2023-05-12T19:07:03.323Z,411.45
2023-05-12T19:12:11.270Z,410.74
2023-05-12T19:17:19.119Z,410.28
2023-05-12T19:22:27.007Z,410.04
2023-05-12T19:27:34.989Z,409.78
2023-05-12T19:32:42.850Z,409.04
2023-05-12T19:37:50.675Z,408.72
2023-05-12T19:42:58.758Z,408.02
2023-05-12T19:48:06.792Z,407.73
2023-05-12T19:53:50.179Z,407.22
2023-05-12T19:58:58.021Z,406.83
2023-05-12T20:04:06.054Z,406.54
2023-05-12T20:09:13.849Z,406.37
2023-05-12T20:14:21.665Z,405.90
2023-05-12T20:19:29.499Z,405.70
2023-05-12T20:24:37.407Z,405.27
2023-05-12T20:29:45.218Z,405.25
2023-05-12T20:34:53.419Z,405.14
2023-05-12T20:40:01.060Z,405.07
2023-05-12T20:45:08.806Z,404.51
2023-05-12T20:50:16.628Z,404.08
2023-05-12T20:55:24.205Z,403.73
2023-05-12T21:00:31.461Z,404.16
2023-05-12T21:05:39.043Z,403.70
2023-05-12T21:10:46.526Z,404.04
2023-05-12T21:15:53.937Z,403.87
2023-05-12T21:21:01.338Z,403.95
2023-05-12T21:26:08.581Z,403.55
2023-05-12T21:31:17.474Z,403.61
2023-05-12T21:36:25.462Z,403.06
2023-05-12T21:41:32.689Z,402.75
2023-05-12T21:46:42.098Z,402.90
2023-05-12T21:51:55.348Z,402.58
2023-05-12T21:57:02.781Z,402.86
2023-05-12T22:02:10.058Z,402.41
2023-05-12T22:07:18.350Z,402.44
2023-05-12T22:12:25.740Z,402.08
2023-05-12T22:17:37.018Z,401.99
2023-05-12T22:22:44.442Z,401.52
2023-05-12T22:27:51.640Z,400.95
2023-05-12T22:32:58.890Z,401.01
2023-05-12T22:38:06.159Z,400.96
2023-05-12T22:43:20.494Z,400.58
2023-05-12T22:49:08.815Z,401.38
2023-05-12T22:54:55.947Z,400.97
2023-05-12T23:00:26.165Z,401.20
2023-05-12T23:05:30.476Z,401.40
2023-05-12T23:11:25.327Z,400.96
2023-05-12T23:18:21.158Z,400.89
2023-05-12T23:23:23.039Z,401.27
2023-05-12T23:31:03.058Z,400.85
2023-05-12T23:42:42.436Z,401.33
2023-05-12T23:48:41.707Z,401.00
2023-05-12T23:56:45.717Z,401.28
